Time;durP1;ratioP1;P1;durP2;ratioP2;P2;SDS_P1;SDS_P2;PMS_P1;PMS_P2;Temp;Humidity;BMP_temperature;BMP_pressure;BME280_temperature;BME280_humidity;BME280_pressure;Samples;Min_cycle;Max_cycle;Signal;HPM_P1;HPM_P2
2023/01/01 00:01:11;;;;;;;26.15;15.75;;;12.90;99.90;;;;;;5110970;27;20050;-47
2023/01/01 00:03:37;;;;;;;28.95;14.32;;;12.90;99.90;;;;;;5099095;27;20072;-47
2023/01/01 00:06:12;;;;;;;26.05;15.10;;;12.90;99.90;;;;;;5115291;27;20512;-49
2023/01/01 00:08:38;;;;;;;27.27;14.52;;;12.90;99.90;;;;;;5108878;27;20039;-50
2023/01/01 00:11:06;;;;;;;30.88;14.65;;;12.90;99.90;;;;;;5111619;27;20459;-46
2023/01/01 00:13:32;;;;;;;26.35;14.27;;;12.90;99.90;;;;;;5114047;27;20081;-50
2023/01/01 00:16:16;;;;;;;22.58;14.77;;;12.90;99.90;;;;;;5110325;27;20412;-54
2023/01/01 00:18:42;;;;;;;20.23;13.75;;;13.00;99.90;;;;;;5113550;27;20067;-47
2023/01/01 00:21:12;;;;;;;20.00;14.40;;;13.00;99.90;;;;;;5112718;27;20538;-49
2023/01/01 00:23:38;;;;;;;24.30;13.73;;;13.00;99.90;;;;;;5110127;27;20066;-52
2023/01/01 00:26:12;;;;;;;22.77;15.25;;;13.00;99.90;;;;;;5114071;27;20039;-48
2023/01/01 00:28:38;;;;;;;26.95;16.52;;;13.00;99.90;;;;;;5113036;27;20047;-47
2023/01/01 00:31:11;;;;;;;27.42;18.08;;;13.00;99.90;;;;;;5096419;27;20051;-48
2023/01/01 00:33:37;;;;;;;28.05;18.88;;;12.90;99.90;;;;;;5115942;27;20043;-49
2023/01/01 00:36:07;;;;;;;35.00;20.45;;;13.00;99.90;;;;;;5100639;27;20481;-46
2023/01/01 00:38:33;;;;;;;33.85;23.27;;;13.00;99.90;;;;;;5116211;27;20055;-48
2023/01/01 00:40:58;;;;;;;30.77;24.35;;;13.00;99.90;;;;;;5120791;27;20049;-47
2023/01/01 00:43:24;;;;;;;34.30;25.52;;;13.00;99.90;;;;;;5117411;27;20038;-48
2023/01/01 00:45:52;;;;;;;39.60;28.15;;;12.90;99.90;;;;;;5111966;27;20125;-45
2023/01/01 00:48:19;;;;;;;40.03;30.05;;;12.90;99.90;;;;;;5124337;27;20050;-50
2023/01/01 00:50:46;;;;;;;35.25;29.63;;;12.90;99.90;;;;;;5099011;27;20515;-49
2023/01/01 00:53:12;;;;;;;45.70;30.65;;;12.90;99.90;;;;;;5099229;27;20062;-49
2023/01/01 00:55:40;;;;;;;42.90;30.85;;;12.80;99.90;;;;;;5133109;27;20058;-49
2023/01/01 00:58:07;;;;;;;43.67;32.22;;;12.90;99.90;;;;;;5132369;27;20176;-45
2023/01/01 01:00:33;;;;;;;38.05;31.13;;;12.80;99.90;;;;;;5115390;27;20488;-47
2023/01/01 01:02:58;;;;;;;47.38;34.92;;;12.80;99.90;;;;;;5096974;27;20042;-49
2023/01/01 01:05:24;;;;;;;42.58;35.05;;;12.80;99.90;;;;;;5114927;27;20051;-47
2023/01/01 01:07:50;;;;;;;46.15;34.95;;;12.70;99.90;;;;;;5122235;27;20096;-50
2023/01/01 01:10:16;;;;;;;45.33;34.53;;;12.60;99.90;;;;;;5125586;27;20050;-47
2023/01/01 01:12:41;;;;;;;43.50;35.63;;;12.50;99.90;;;;;;5126245;27;20043;-47
2023/01/01 01:15:08;;;;;;;42.25;34.90;;;12.50;99.90;;;;;;5113664;27;20382;-47
2023/01/01 01:17:34;;;;;;;47.85;34.05;;;12.50;99.90;;;;;;5130289;27;20477;-45
2023/01/01 01:20:00;;;;;;;42.50;35.33;;;12.50;99.90;;;;;;5127484;27;20058;-48
2023/01/01 01:22:26;;;;;;;44.00;37.22;;;12.50;99.90;;;;;;5131625;27;20038;-45
2023/01/01 01:24:52;;;;;;;53.78;38.05;;;12.40;99.90;;;;;;5125696;27;20158;-47
2023/01/01 01:27:17;;;;;;;56.20;39.63;;;12.50;99.90;;;;;;5129280;27;20049;-48
2023/01/01 01:29:43;;;;;;;48.67;40.40;;;12.40;99.90;;;;;;5116445;27;20107;-47
2023/01/01 01:32:10;;;;;;;52.78;45.55;;;12.40;99.90;;;;;;5130743;27;20046;-47
2023/01/01 01:34:36;;;;;;;54.63;46.58;;;12.30;99.90;;;;;;5126071;27;20051;-46
2023/01/01 01:37:02;;;;;;;57.00;47.25;;;12.20;99.90;;;;;;5128089;27;20115;-47
2023/01/01 01:39:27;;;;;;;57.22;46.65;;;12.20;99.90;;;;;;5105315;27;20042;-49
2023/01/01 01:41:53;;;;;;;51.92;46.28;;;12.20;99.90;;;;;;5134721;27;20154;-47
2023/01/01 01:44:49;;;;;;;60.10;51.55;;;12.10;99.90;;;;;;5115121;27;20070;-47
2023/01/01 01:47:24;;;;;;;57.55;49.15;;;12.00;99.90;;;;;;5134306;27;20408;-46
2023/01/01 01:49:56;;;;;;;61.90;55.03;;;12.00;99.90;;;;;;5132435;27;20046;-46
2023/01/01 01:52:22;;;;;;;65.88;52.75;;;12.00;99.90;;;;;;5121332;27;20047;-48
2023/01/01 01:54:48;;;;;;;62.65;50.72;;;11.90;99.90;;;;;;5130419;27;20091;-46
2023/01/01 01:57:14;;;;;;;60.22;53.35;;;12.00;99.90;;;;;;5132551;27;20126;-46
2023/01/01 01:59:46;;;;;;;66.13;51.42;;;11.90;99.90;;;;;;5134519;27;20085;-47
2023/01/01 02:02:32;;;;;;;63.60;54.80;;;11.90;99.90;;;;;;5099455;27;20745;-47
2023/01/01 02:04:58;;;;;;;63.53;53.50;;;11.90;99.90;;;;;;5119374;27;20321;-48
2023/01/01 02:07:27;;;;;;;65.72;51.55;;;11.90;99.90;;;;;;5122945;27;20514;-47
2023/01/01 02:09:53;;;;;;;60.67;50.80;;;11.90;99.90;;;;;;5131278;27;20043;-50
2023/01/01 02:12:19;;;;;;;57.67;47.95;;;12.00;99.90;;;;;;5132365;27;20057;-48
2023/01/01 02:14:44;;;;;;;52.92;44.78;;;12.00;99.90;;;;;;5117405;27;20057;-45
2023/01/01 02:17:33;;;;;;;50.08;39.53;;;12.00;99.90;;;;;;5131007;27;20412;-46
2023/01/01 02:20:21;;;;;;;49.42;36.22;;;12.10;99.90;;;;;;5118224;27;20083;-47
2023/01/01 02:23:15;;;;;;;46.85;35.05;;;12.10;99.90;;;;;;5137107;27;20431;-49
2023/01/01 02:25:44;;;;;;;46.22;33.33;;;12.10;99.90;;;;;;5123031;27;20047;-47
2023/01/01 02:28:25;;;;;;;39.42;29.95;;;12.10;99.90;;;;;;5129801;27;20051;-50
2023/01/01 02:30:53;;;;;;;41.55;31.70;;;12.10;99.90;;;;;;5103229;27;20150;-45
2023/01/01 02:33:23;;;;;;;40.08;29.38;;;12.10;99.90;;;;;;5126689;27;20103;-51
2023/01/01 02:35:52;;;;;;;32.42;25.63;;;12.10;99.90;;;;;;5123277;27;20046;-48
2023/01/01 02:38:27;;;;;;;35.63;24.17;;;12.10;99.90;;;;;;5126075;27;20636;-47
2023/01/01 02:40:57;;;;;;;33.08;23.35;;;12.10;99.90;;;;;;5125669;27;20050;-46
2023/01/01 02:43:22;;;;;;;34.08;21.65;;;12.20;99.90;;;;;;5132674;27;20087;-49
2023/01/01 02:45:48;;;;;;;28.48;21.17;;;12.20;99.90;;;;;;5125892;27;20039;-45
2023/01/01 02:48:53;;;;;;;24.00;18.13;;;12.20;99.90;;;;;;5124928;27;20050;-46
2023/01/01 02:51:33;;;;;;;29.23;17.83;;;12.30;99.90;;;;;;5136416;27;20068;-47
2023/01/01 02:54:16;;;;;;;29.40;16.55;;;12.30;99.90;;;;;;5127646;27;20060;-46
2023/01/01 02:56:45;;;;;;;;;;;12.30;99.90;;;;;;5114409;27;20047;-48
2023/01/01 03:02:13;;;;;;;22.08;14.75;;;12.30;99.90;;;;;;5127768;27;20060;-46
2023/01/01 03:05:06;;;;;;;19.88;13.05;;;12.30;99.90;;;;;;5123589;27;20048;-46
2023/01/01 03:08:04;;;;;;;20.45;13.00;;;12.20;99.90;;;;;;5123547;27;20054;-50
2023/01/01 03:11:04;;;;;;;19.75;12.10;;;12.30;99.90;;;;;;5025602;28;20056;-46
2023/01/01 03:13:47;;;;;;;24.63;12.30;;;12.20;99.90;;;;;;5024520;28;20154;-46
2023/01/01 03:16:15;;;;;;;31.50;14.85;;;12.20;99.90;;;;;;5019127;28;20530;-46
2023/01/01 03:18:47;;;;;;;21.10;14.02;;;12.10;99.90;;;;;;5033532;28;20122;-47
2023/01/01 03:21:16;;;;;;;18.40;11.05;;;11.90;99.90;;;;;;5033148;28;20053;-48
2023/01/01 03:23:48;;;;;;;21.92;12.63;;;11.70;99.90;;;;;;5021213;28;20562;-46
2023/01/01 03:26:16;;;;;;;26.83;14.10;;;11.50;99.90;;;;;;5019667;28;20283;-46
2023/01/01 03:28:53;;;;;;;27.05;14.80;;;11.50;99.90;;;;;;5033409;28;20285;-46
2023/01/01 03:31:24;;;;;;;22.08;12.23;;;11.30;99.90;;;;;;5005906;28;20057;-48
2023/01/01 03:34:05;;;;;;;22.15;11.85;;;11.10;99.90;;;;;;5002641;28;20151;-46
2023/01/01 03:36:35;;;;;;;23.55;11.55;;;11.00;99.90;;;;;;5020789;28;20041;-46
2023/01/01 03:39:07;;;;;;;22.42;12.60;;;10.90;99.90;;;;;;5026518;28;20057;-46
2023/01/01 03:41:41;;;;;;;22.10;11.52;;;10.90;99.90;;;;;;4997094;28;20175;-48
2023/01/01 03:44:18;;;;;;;26.50;10.52;;;11.00;99.90;;;;;;5013463;28;20186;-49
2023/01/01 03:46:45;;;;;;;23.05;9.32;;;10.90;99.90;;;;;;5050664;27;20102;-46
2023/01/01 03:49:12;;;;;;;21.02;9.25;;;10.80;99.90;;;;;;5128067;27;20146;-45
2023/01/01 03:51:40;;;;;;;21.90;7.97;;;10.80;99.90;;;;;;5131199;27;20051;-48
2023/01/01 03:54:47;;;;;;;21.35;7.05;;;10.80;99.90;;;;;;5126504;27;20508;-47
2023/01/01 03:58:04;;;;;;;20.45;7.55;;;11.00;99.90;;;;;;5015841;28;20084;-46
2023/01/01 04:00:41;;;;;;;18.00;7.47;;;11.00;99.90;;;;;;4973249;28;20525;-46
2023/01/01 04:03:15;;;;;;;21.17;8.15;;;10.90;99.90;;;;;;4973708;28;20247;-48
2023/01/01 04:05:42;;;;;;;22.50;7.25;;;10.90;99.90;;;;;;4972609;28;20054;-46
2023/01/01 04:08:10;;;;;;;21.23;7.35;;;11.00;99.90;;;;;;4957609;28;20129;-47
2023/01/01 04:10:55;;;;;;;15.98;6.22;;;10.90;99.90;;;;;;4945261;28;20588;-48
2023/01/01 04:13:21;;;;;;;19.05;7.45;;;10.80;99.90;;;;;;4953954;28;20073;-48
2023/01/01 04:15:47;;;;;;;27.20;8.70;;;10.90;99.90;;;;;;4966251;28;20054;-46
2023/01/01 04:18:12;;;;;;;18.70;6.55;;;10.80;99.90;;;;;;4957089;28;20046;-50
2023/01/01 04:20:38;;;;;;;21.52;6.13;;;10.80;99.90;;;;;;4959826;28;20066;-48
2023/01/01 04:23:04;;;;;;;20.23;7.07;;;10.90;99.90;;;;;;4953540;28;20490;-49
2023/01/01 04:25:29;;;;;;;15.18;5.88;;;10.70;99.90;;;;;;4949598;28;20118;-47
2023/01/01 04:27:57;;;;;;;23.25;5.97;;;10.80;99.90;;;;;;4953614;28;20050;-45
2023/01/01 04:30:22;;;;;;;24.58;5.63;;;10.70;99.90;;;;;;4953388;28;20581;-47
2023/01/01 04:32:48;;;;;;;18.60;5.22;;;10.70;99.90;;;;;;4999870;28;20089;-47
2023/01/01 04:35:14;;;;;;;15.10;5.35;;;10.80;99.90;;;;;;5048064;27;20072;-46
2023/01/01 04:37:41;;;;;;;18.13;5.82;;;10.70;99.90;;;;;;5137000;27;20054;-49
2023/01/01 04:40:09;;;;;;;22.67;7.80;;;10.70;99.90;;;;;;5123398;27;20096;-47
2023/01/01 04:42:34;;;;;;;25.27;9.50;;;10.70;99.90;;;;;;5113650;27;20089;-48
2023/01/01 04:45:00;;;;;;;21.67;8.75;;;10.70;99.90;;;;;;5130602;27;20130;-46
2023/01/01 04:47:26;;;;;;;24.25;9.68;;;10.80;99.90;;;;;;5128986;27;20378;-45
2023/01/01 04:49:52;;;;;;;15.75;7.15;;;10.80;99.90;;;;;;5131327;27;20106;-46
2023/01/01 04:52:18;;;;;;;13.10;5.32;;;10.80;99.90;;;;;;5128363;27;20145;-47
2023/01/01 04:54:44;;;;;;;13.55;4.68;;;10.80;99.90;;;;;;5128457;27;20049;-45
2023/01/01 04:57:10;;;;;;;15.38;4.95;;;10.80;99.90;;;;;;5133978;27;20091;-49
2023/01/01 04:59:36;;;;;;;12.65;5.10;;;10.80;99.90;;;;;;5122539;27;20046;-45
2023/01/01 05:02:02;;;;;;;16.60;4.25;;;10.80;99.90;;;;;;5125521;27;20057;-46
2023/01/01 05:04:27;;;;;;;16.02;5.05;;;10.90;99.90;;;;;;5100085;27;20521;-47
2023/01/01 05:06:53;;;;;;;13.25;3.70;;;10.90;99.90;;;;;;5134365;27;20632;-47
2023/01/01 05:09:19;;;;;;;14.20;4.22;;;10.90;99.90;;;;;;5135951;27;20054;-45
2023/01/01 05:11:44;;;;;;;12.20;4.10;;;11.00;99.90;;;;;;5126736;27;20102;-47
2023/01/01 05:14:10;;;;;;;10.75;4.07;;;11.00;99.90;;;;;;5116036;27;20714;-47
2023/01/01 05:16:38;;;;;;;9.15;3.35;;;11.10;99.90;;;;;;5115816;27;20480;-47
2023/01/01 05:19:05;;;;;;;13.60;4.25;;;11.10;99.90;;;;;;5110997;27;20126;-47
2023/01/01 05:21:34;;;;;;;14.32;4.60;;;11.10;99.90;;;;;;5122412;27;20129;-47
2023/01/01 05:24:05;;;;;;;12.98;5.28;;;11.00;99.90;;;;;;5085774;27;20076;-48
2023/01/01 05:26:33;;;;;;;13.48;4.60;;;11.10;99.90;;;;;;5126624;27;20051;-47
2023/01/01 05:29:00;;;;;;;13.43;4.72;;;11.00;99.90;;;;;;5110030;27;20121;-46
2023/01/01 05:31:32;;;;;;;12.90;4.32;;;11.00;99.90;;;;;;5115196;27;20413;-47
2023/01/01 05:33:58;;;;;;;11.32;3.88;;;11.00;99.90;;;;;;5132071;27;20051;-48
2023/01/01 05:36:30;;;;;;;12.38;3.90;;;11.00;99.90;;;;;;5135355;27;20437;-47
2023/01/01 05:38:56;;;;;;;10.82;2.95;;;10.90;99.90;;;;;;5131345;27;20043;-50
2023/01/01 05:41:22;;;;;;;11.38;3.83;;;10.90;99.90;;;;;;5126434;27;20121;-49
2023/01/01 05:43:49;;;;;;;9.90;3.60;;;10.90;99.90;;;;;;5125104;27;20053;-47
2023/01/01 05:46:16;;;;;;;9.52;3.53;;;10.80;99.90;;;;;;5138477;27;20046;-48
2023/01/01 05:48:42;;;;;;;9.40;3.22;;;10.80;99.90;;;;;;5120318;27;20086;-47
2023/01/01 05:51:11;;;;;;;7.47;2.60;;;10.80;99.90;;;;;;5118686;27;20708;-50
2023/01/01 05:53:38;;;;;;;14.57;4.05;;;10.80;99.90;;;;;;5114518;27;20096;-47
2023/01/01 05:56:04;;;;;;;13.57;4.03;;;10.70;99.90;;;;;;5084658;27;20309;-47
2023/01/01 05:58:31;;;;;;;14.02;2.97;;;10.70;99.90;;;;;;5120549;27;20058;-46
2023/01/01 06:01:06;;;;;;;20.23;4.18;;;10.70;99.90;;;;;;5132692;27;20645;-46
2023/01/01 06:03:31;;;;;;;10.95;2.33;;;10.70;99.90;;;;;;5113050;27;20058;-47
2023/01/01 06:06:01;;;;;;;12.30;3.05;;;10.70;99.90;;;;;;5099816;27;20500;-48
2023/01/01 06:08:27;;;;;;;10.48;2.83;;;10.60;99.90;;;;;;5131449;27;20047;-49
2023/01/01 06:10:57;;;;;;;8.48;2.65;;;10.60;99.90;;;;;;5131677;27;20652;-45
2023/01/01 06:13:23;;;;;;;8.30;2.22;;;10.60;99.90;;;;;;5119784;27;20047;-50
2023/01/01 06:15:54;;;;;;;12.00;2.50;;;10.60;99.90;;;;;;5118517;27;20126;-48
2023/01/01 06:18:19;;;;;;;9.00;2.42;;;10.60;99.90;;;;;;5130976;27;20602;-46
2023/01/01 06:20:45;;;;;;;9.70;2.22;;;10.60;99.90;;;;;;5132352;27;20146;-46
2023/01/01 06:23:11;;;;;;;10.27;1.90;;;10.50;99.90;;;;;;5120806;27;20415;-46
2023/01/01 06:25:36;;;;;;;10.98;2.50;;;10.50;99.90;;;;;;5131545;27;20057;-46
2023/01/01 06:28:02;;;;;;;12.32;2.65;;;10.50;99.90;;;;;;5126236;27;20039;-49
2023/01/01 06:30:27;;;;;;;11.63;3.17;;;10.50;99.90;;;;;;5118271;27;20576;-47
2023/01/01 06:32:53;;;;;;;10.07;2.65;;;10.50;99.90;;;;;;5138524;27;20098;-49
2023/01/01 06:35:19;;;;;;;10.32;2.33;;;10.50;99.90;;;;;;5137781;27;20172;-46
2023/01/01 06:37:44;;;;;;;9.93;2.25;;;10.50;99.90;;;;;;5130378;27;20442;-49
2023/01/01 06:40:10;;;;;;;15.32;2.65;;;10.40;99.90;;;;;;5133808;27;20047;-46
2023/01/01 06:42:36;;;;;;;10.32;2.20;;;10.40;99.90;;;;;;5130472;27;20566;-46
2023/01/01 06:45:02;;;;;;;12.77;2.60;;;10.40;99.90;;;;;;5117934;27;20322;-49
2023/01/01 06:47:27;;;;;;;16.63;3.35;;;10.40;99.90;;;;;;5119587;27;20050;-47
2023/01/01 06:49:53;;;;;;;16.88;3.20;;;10.40;99.90;;;;;;5106525;27;20082;-49
2023/01/01 06:52:18;;;;;;;14.88;3.42;;;10.40;99.90;;;;;;5130499;27;20082;-47
2023/01/01 06:54:44;;;;;;;13.48;2.90;;;10.40;99.90;;;;;;5131317;27;20086;-48
2023/01/01 06:57:10;;;;;;;17.45;4.32;;;10.40;99.90;;;;;;5106929;27;20054;-46
2023/01/01 06:59:35;;;;;;;19.73;3.75;;;10.40;99.90;;;;;;5125457;27;20047;-45
2023/01/01 07:02:01;;;;;;;16.02;3.00;;;10.40;99.90;;;;;;5130201;27;20188;-45
2023/01/01 07:04:27;;;;;;;23.50;4.55;;;10.40;99.90;;;;;;5116761;27;20227;-48
2023/01/01 07:06:52;;;;;;;15.40;3.47;;;10.30;99.90;;;;;;5125407;27;20125;-46
2023/01/01 07:09:18;;;;;;;13.77;3.45;;;10.30;99.90;;;;;;5138457;27;20423;-46
2023/01/01 07:11:43;;;;;;;12.60;3.33;;;10.30;99.90;;;;;;5138122;27;20102;-49
2023/01/01 07:14:09;;;;;;;17.98;3.60;;;10.30;99.90;;;;;;5122419;27;20178;-49
2023/01/01 07:16:35;;;;;;;20.70;3.95;;;10.30;99.90;;;;;;5117436;27;20142;-45
2023/01/01 07:19:00;;;;;;;14.43;3.88;;;10.30;99.90;;;;;;5112868;27;20545;-47
2023/01/01 07:21:40;;;;;;;19.92;3.72;;;10.30;99.90;;;;;;5137937;27;20078;-45
2023/01/01 07:24:08;;;;;;;15.52;3.78;;;10.30;99.90;;;;;;5123393;27;20058;-45
2023/01/01 07:26:34;;;;;;;18.10;4.38;;;10.30;99.90;;;;;;5138550;27;20541;-46
2023/01/01 07:29:00;;;;;;;18.85;3.85;;;10.30;99.90;;;;;;5103711;27;20054;-46
2023/01/01 07:31:26;;;;;;;21.98;5.35;;;10.30;99.90;;;;;;5127317;27;20494;-45
2023/01/01 07:33:51;;;;;;;24.75;5.03;;;10.30;99.90;;;;;;5122491;27;20043;-49
2023/01/01 07:36:17;;;;;;;21.77;4.30;;;10.30;99.90;;;;;;5127670;27;20062;-47
2023/01/01 07:38:43;;;;;;;24.90;5.78;;;10.30;99.90;;;;;;5119608;27;20467;-50
2023/01/01 07:41:08;;;;;;;21.70;4.35;;;10.30;99.90;;;;;;5128049;27;20126;-49
2023/01/01 07:43:34;;;;;;;18.27;4.25;;;10.30;99.90;;;;;;5130826;27;20480;-47
2023/01/01 07:46:00;;;;;;;26.75;5.45;;;10.20;99.90;;;;;;5118728;27;20099;-48
2023/01/01 07:48:27;;;;;;;22.92;4.55;;;10.20;99.90;;;;;;5138126;27;20057;-45
2023/01/01 07:50:52;;;;;;;33.63;5.88;;;10.20;99.90;;;;;;5137851;27;20099;-50
2023/01/01 07:53:18;;;;;;;23.25;4.47;;;10.20;99.90;;;;;;5137736;27;20487;-50
2023/01/01 07:55:44;;;;;;;26.25;4.40;;;10.20;99.90;;;;;;5129375;27;20458;-49
2023/01/01 07:58:11;;;;;;;29.40;5.35;;;10.20;99.90;;;;;;5123054;27;20561;-48
2023/01/01 08:00:37;;;;;;;20.65;4.88;;;10.20;99.90;;;;;;5127494;27;20046;-45
2023/01/01 08:03:03;;;;;;;22.77;4.53;;;10.10;99.90;;;;;;5112085;27;20050;-47
2023/01/01 08:05:29;;;;;;;30.75;5.57;;;10.10;99.90;;;;;;5126909;27;20051;-47
2023/01/01 08:07:54;;;;;;;23.60;5.18;;;10.20;99.90;;;;;;5122464;27;20043;-48
2023/01/01 08:10:21;;;;;;;26.17;5.25;;;10.10;99.90;;;;;;5125647;27;20248;-46
2023/01/01 08:12:47;;;;;;;32.53;6.00;;;10.10;99.90;;;;;;5098422;27;20138;-46
2023/01/01 08:15:13;;;;;;;22.38;4.68;;;10.10;99.90;;;;;;5125883;27;20127;-48
2023/01/01 08:17:39;;;;;;;29.80;5.18;;;10.10;99.90;;;;;;5134761;27;20187;-46
2023/01/01 08:20:06;;;;;;;24.70;4.90;;;10.10;99.90;;;;;;5117590;27;20038;-46
2023/01/01 08:22:32;;;;;;;29.40;5.18;;;10.00;99.90;;;;;;5118943;27;20050;-47
2023/01/01 08:24:57;;;;;;;27.23;5.85;;;10.10;99.90;;;;;;5107506;27;20460;-51
2023/01/01 08:27:23;;;;;;;25.05;6.28;;;10.10;99.90;;;;;;5132427;27;20043;-47
2023/01/01 08:29:49;;;;;;;26.15;5.10;;;10.10;99.90;;;;;;5135706;27;20078;-46
2023/01/01 08:32:14;;;;;;;26.90;4.78;;;10.00;99.90;;;;;;5134103;27;20071;-48
2023/01/01 08:34:40;;;;;;;24.25;4.38;;;10.10;99.90;;;;;;5124779;27;20080;-48
2023/01/01 08:37:10;;;;;;;25.35;4.60;;;10.10;99.90;;;;;;5123366;27;20043;-45
2023/01/01 08:39:35;;;;;;;21.60;5.25;;;10.00;99.90;;;;;;5136974;27;20052;-46
2023/01/01 08:42:01;;;;;;;22.15;5.40;;;10.10;99.90;;;;;;5122598;27;20042;-45
2023/01/01 08:44:27;;;;;;;24.60;6.63;;;10.10;99.90;;;;;;5125742;27;20705;-45
2023/01/01 08:46:52;;;;;;;18.70;4.50;;;10.00;99.90;;;;;;5122454;27;20503;-47
2023/01/01 08:49:18;;;;;;;28.10;5.28;;;10.10;99.90;;;;;;5117483;27;20227;-48
2023/01/01 08:51:44;;;;;;;27.02;5.47;;;10.10;99.90;;;;;;5122653;27;20479;-47
2023/01/01 08:54:09;;;;;;;22.30;5.15;;;10.10;99.90;;;;;;5116382;27;20047;-45
2023/01/01 08:56:36;;;;;;;33.88;6.05;;;10.10;99.90;;;;;;5123333;27;20043;-48
2023/01/01 08:59:02;;;;;;;24.02;4.38;;;10.10;99.90;;;;;;5136387;27;20050;-49
2023/01/01 09:01:28;;;;;;;26.35;6.15;;;10.10;99.90;;;;;;5132767;27;20047;-49
2023/01/01 09:03:53;;;;;;;24.83;4.97;;;10.10;99.90;;;;;;5125000;27;20133;-47
2023/01/01 09:06:19;;;;;;;24.88;6.07;;;10.10;99.90;;;;;;5122890;27;20567;-47
2023/01/01 09:08:45;;;;;;;28.85;5.57;;;10.10;99.90;;;;;;5126073;27;20628;-47
2023/01/01 09:11:23;;;;;;;26.08;5.10;;;10.10;99.90;;;;;;5111161;27;20086;-47
2023/01/01 09:13:49;;;;;;;20.17;5.20;;;10.10;99.90;;;;;;5115523;27;20150;-46
2023/01/01 09:16:15;;;;;;;27.33;5.35;;;10.10;99.90;;;;;;5119862;27;20053;-46
2023/01/01 09:18:40;;;;;;;24.65;4.63;;;10.10;99.90;;;;;;5136526;27;20050;-45
2023/01/01 09:21:06;;;;;;;30.80;6.78;;;10.10;99.90;;;;;;5131895;27;20155;-44
2023/01/01 09:23:32;;;;;;;28.58;5.30;;;10.10;99.90;;;;;;5116780;27;20062;-48
2023/01/01 09:26:06;;;;;;;21.42;4.82;;;10.20;99.90;;;;;;5110268;27;20112;-44
2023/01/01 09:28:32;;;;;;;19.17;5.07;;;10.10;99.90;;;;;;5127030;27;20042;-47
2023/01/01 09:30:58;;;;;;;28.73;6.47;;;10.20;99.90;;;;;;5122804;27;20448;-46
2023/01/01 09:33:23;;;;;;;26.85;5.63;;;10.20;99.90;;;;;;5135920;27;20129;-48
2023/01/01 09:35:49;;;;;;;31.00;5.57;;;10.20;99.90;;;;;;5131398;27;20080;-46
2023/01/01 09:38:15;;;;;;;25.48;5.22;;;10.20;99.90;;;;;;5135260;27;20042;-46
2023/01/01 09:41:07;;;;;;;25.33;5.55;;;10.20;99.90;;;;;;5133756;27;20034;-46
2023/01/01 09:44:16;;;;;;;28.10;5.40;;;10.20;99.90;;;;;;5124851;27;20134;-50
2023/01/01 09:46:42;;;;;;;28.17;5.30;;;10.30;99.90;;;;;;5134110;27;20051;-48
2023/01/01 09:49:36;;;;;;;24.00;5.45;;;10.20;99.90;;;;;;5122443;27;20058;-46
2023/01/01 09:52:04;;;;;;;25.33;5.13;;;10.30;99.90;;;;;;5027950;28;20057;-47
2023/01/01 09:54:38;;;;;;;19.25;4.88;;;10.30;99.90;;;;;;5030104;28;20057;-47
2023/01/01 09:57:09;;;;;;;20.98;5.30;;;10.30;99.90;;;;;;5010741;28;20155;-45
2023/01/01 09:59:35;;;;;;;28.30;5.63;;;10.30;99.90;;;;;;5024278;28;20053;-47
2023/01/01 10:02:27;;;;;;;33.67;6.28;;;10.40;99.90;;;;;;5028128;28;20486;-47
2023/01/01 10:05:08;;;;;;;16.15;4.07;;;10.40;99.90;;;;;;5029512;28;20416;-47
2023/01/01 10:07:55;;;;;;;25.73;7.93;;;10.40;99.90;;;;;;5016959;28;20131;-48
2023/01/01 10:10:40;;;;;;;24.40;4.55;;;10.40;99.90;;;;;;4993928;28;20070;-47
2023/01/01 10:13:41;;;;;;;23.10;3.80;;;10.40;99.90;;;;;;5029769;28;20071;-45
2023/01/01 10:16:19;;;;;;;24.33;4.70;;;10.50;99.90;;;;;;5017473;28;20092;-46
2023/01/01 10:18:49;;;;;;;19.63;4.95;;;10.50;99.90;;;;;;5019162;28;20942;-45
2023/01/01 10:21:16;;;;;;;23.92;3.75;;;10.60;99.90;;;;;;5013299;28;20550;-46
2023/01/01 10:24:02;;;;;;;20.55;3.85;;;10.60;99.90;;;;;;5017134;28;20208;-47
2023/01/01 10:26:30;;;;;;;19.67;5.10;;;10.60;99.90;;;;;;5014888;28;20511;-48
2023/01/01 10:29:02;;;;;;;25.48;4.55;;;10.60;99.90;;;;;;5064376;27;20062;-45
2023/01/01 10:31:30;;;;;;;15.93;3.20;;;10.50;99.90;;;;;;5128886;27;20564;-48
2023/01/01 10:33:56;;;;;;;19.30;4.20;;;10.40;99.90;;;;;;5117894;27;20532;-45
2023/01/01 10:36:23;;;;;;;18.65;5.47;;;10.40;99.90;;;;;;5128981;27;20038;-46
2023/01/01 10:38:50;;;;;;;19.88;3.58;;;10.40;99.90;;;;;;5124999;27;20501;-48
2023/01/01 10:41:16;;;;;;;15.75;3.80;;;10.40;99.90;;;;;;5128775;27;20043;-46
2023/01/01 10:43:43;;;;;;;16.05;3.50;;;10.40;99.90;;;;;;5128188;27;20096;-46
2023/01/01 10:46:13;;;;;;;16.52;3.33;;;10.30;99.90;;;;;;5118563;27;20857;-49
2023/01/01 10:48:41;;;;;;;19.55;4.80;;;10.40;99.90;;;;;;5122714;27;20042;-51
2023/01/01 10:51:14;;;;;;;20.20;3.90;;;10.40;99.90;;;;;;5132417;27;20149;-46
2023/01/01 10:53:42;;;;;;;16.50;3.47;;;10.40;99.90;;;;;;5116179;27;20043;-47
2023/01/01 10:56:19;;;;;;;23.27;4.00;;;10.50;99.90;;;;;;5101705;27;20047;-45
2023/01/01 10:58:50;;;;;;;14.50;3.58;;;10.50;99.90;;;;;;5116103;27;20440;-45
2023/01/01 11:01:31;;;;;;;15.93;3.63;;;10.50;99.90;;;;;;5117157;27;20047;-46
2023/01/01 11:04:12;;;;;;;16.98;3.33;;;10.60;99.90;;;;;;5098157;27;20051;-45
2023/01/01 11:06:45;;;;;;;17.38;3.15;;;10.60;99.90;;;;;;5099055;27;20035;-50
2023/01/01 11:09:27;;;;;;;22.85;3.63;;;10.60;99.90;;;;;;5099134;27;20493;-47
2023/01/01 11:12:15;;;;;;;15.75;2.97;;;10.60;99.90;;;;;;5098859;27;20266;-45
2023/01/01 11:14:47;;;;;;;21.00;3.67;;;10.70;99.90;;;;;;5128713;27;20035;-47
2023/01/01 11:17:23;;;;;;;14.65;3.97;;;10.70;99.90;;;;;;5081388;27;20537;-51
2023/01/01 11:19:50;;;;;;;14.90;3.40;;;10.70;99.90;;;;;;5116898;27;20039;-48
2023/01/01 11:22:34;;;;;;;15.98;3.83;;;10.70;99.90;;;;;;5101420;27;20427;-46
2023/01/01 11:25:01;;;;;;;14.68;2.85;;;10.70;99.90;;;;;;5116470;27;20035;-47
2023/01/01 11:27:27;;;;;;;14.68;3.72;;;10.70;99.90;;;;;;5116966;27;20065;-47
2023/01/01 11:30:23;;;;;;;13.60;3.30;;;10.70;99.90;;;;;;5120189;27;20279;-47
2023/01/01 11:32:53;;;;;;;17.08;3.60;;;10.70;99.90;;;;;;5124866;27;20394;-48
2023/01/01 11:35:22;;;;;;;16.52;3.55;;;10.70;99.90;;;;;;5112325;27;20090;-46
2023/01/01 11:37:50;;;;;;;19.88;4.03;;;10.70;99.90;;;;;;5125744;27;20031;-46
2023/01/01 11:40:28;;;;;;;16.88;3.67;;;10.60;99.90;;;;;;5118869;27;20389;-46
2023/01/01 11:42:58;;;;;;;17.25;3.70;;;10.70;99.90;;;;;;5095245;27;20527;-50
2023/01/01 11:45:38;;;;;;;17.77;3.72;;;10.70;99.90;;;;;;5114642;27;20054;-47
2023/01/01 11:48:16;;;;;;;17.08;3.03;;;10.70;99.90;;;;;;5116245;27;20488;-50
2023/01/01 11:51:10;;;;;;;18.42;4.03;;;10.80;99.90;;;;;;5115794;27;20058;-47
2023/01/01 11:53:40;;;;;;;15.35;3.05;;;10.90;99.90;;;;;;5111275;27;20051;-47
2023/01/01 11:56:21;;;;;;;13.15;3.22;;;10.90;99.90;;;;;;5120370;27;20045;-48
2023/01/01 11:58:57;;;;;;;17.27;3.40;;;10.90;99.90;;;;;;5115379;27;20477;-45
2023/01/01 12:01:31;;;;;;;20.65;3.78;;;11.00;99.90;;;;;;5115479;27;20078;-48
2023/01/01 12:04:00;;;;;;;16.38;4.72;;;11.10;99.90;;;;;;5114806;27;20126;-45
2023/01/01 12:06:34;;;;;;;19.13;3.42;;;11.10;99.90;;;;;;5115653;27;20062;-46
2023/01/01 12:09:14;;;;;;;15.57;3.17;;;11.10;99.90;;;;;;5115654;27;20126;-50
2023/01/01 12:12:07;;;;;;;14.30;4.20;;;11.10;99.90;;;;;;5115836;27;20640;-47
2023/01/01 12:14:32;;;;;;;14.75;3.63;;;11.20;99.90;;;;;;5117908;27;20487;-47
2023/01/01 12:17:04;;;;;;;20.63;4.40;;;11.20;99.90;;;;;;5115495;27;20568;-48
2023/01/01 12:20:07;;;;;;;17.23;4.10;;;11.20;99.90;;;;;;5114063;27;20141;-45
2023/01/01 12:22:33;;;;;;;17.15;4.18;;;11.20;99.90;;;;;;5115851;27;20043;-47
2023/01/01 12:24:59;;;;;;;15.18;4.03;;;11.20;99.90;;;;;;5114252;27;20493;-49
2023/01/01 12:27:37;;;;;;;15.65;3.60;;;11.20;99.90;;;;;;5122755;27;20043;-46
2023/01/01 12:30:11;;;;;;;19.92;4.85;;;11.20;99.90;;;;;;5096702;27;20055;-46
2023/01/01 12:32:46;;;;;;;12.23;3.67;;;11.20;99.90;;;;;;5109522;27;20046;-49
2023/01/01 12:36:05;;;;;;;23.17;3.92;;;11.20;99.90;;;;;;5129064;27;20047;-47
2023/01/01 12:38:50;;;;;;;12.02;3.40;;;11.10;99.90;;;;;;5042724;28;20041;-46
2023/01/01 12:41:49;;;;;;;14.25;3.33;;;11.10;99.90;;;;;;5041230;28;20471;-47
2023/01/01 12:44:49;;;;;;;21.75;4.03;;;11.10;99.90;;;;;;5003613;28;20041;-51
2023/01/01 12:47:42;;;;;;;17.75;4.10;;;11.20;99.90;;;;;;5017954;28;20079;-47
2023/01/01 12:50:29;;;;;;;14.65;4.28;;;11.10;99.90;;;;;;5028970;28;20144;-48
2023/01/01 12:52:54;;;;;;;17.75;3.63;;;11.20;99.90;;;;;;5031057;28;20536;-47
2023/01/01 12:55:38;;;;;;;20.48;4.70;;;11.20;99.90;;;;;;5017221;28;20044;-48
2023/01/01 12:58:12;;;;;;;15.50;3.90;;;11.20;99.90;;;;;;5028929;28;20049;-46